sensor_id;sensor_type;location;lat;lon;timestamp;P1;durP1;ratioP1;P2;durP2;ratioP2
56997;SDS011;42890;44.244;22.530;2022-07-09T00:02:01;3.33;;;2.80;;
56997;SDS011;42890;44.244;22.530;2022-07-09T00:04:27;5.00;;;2.58;;
56997;SDS011;42890;44.244;22.530;2022-07-09T00:06:53;3.15;;;2.70;;
56997;SDS011;42890;44.244;22.530;2022-07-09T00:09:19;3.33;;;2.58;;
56997;SDS011;42890;44.244;22.530;2022-07-09T00:11:45;3.08;;;2.40;;
56997;SDS011;42890;44.244;22.530;2022-07-09T00:14:11;6.40;;;2.67;;
56997;SDS011;42890;44.244;22.530;2022-07-09T00:16:38;4.50;;;2.45;;
56997;SDS011;42890;44.244;22.530;2022-07-09T00:19:04;3.80;;;2.75;;
56997;SDS011;42890;44.244;22.530;2022-07-09T00:21:30;6.13;;;2.92;;
56997;SDS011;42890;44.244;22.530;2022-07-09T00:23:56;3.50;;;2.95;;
56997;SDS011;42890;44.244;22.530;2022-07-09T00:26:22;3.83;;;2.30;;
56997;SDS011;42890;44.244;22.530;2022-07-09T00:28:48;5.10;;;2.80;;
56997;SDS011;42890;44.244;22.530;2022-07-09T00:31:15;2.92;;;2.70;;
56997;SDS011;42890;44.244;22.530;2022-07-09T00:33:41;4.25;;;2.50;;
56997;SDS011;42890;44.244;22.530;2022-07-09T00:36:07;3.30;;;2.70;;
56997;SDS011;42890;44.244;22.530;2022-07-09T00:38:33;4.22;;;2.88;;
56997;SDS011;42890;44.244;22.530;2022-07-09T00:40:59;2.95;;;2.40;;
56997;SDS011;42890;44.244;22.530;2022-07-09T00:43:26;6.50;;;2.83;;
56997;SDS011;42890;44.244;22.530;2022-07-09T00:45:52;3.92;;;2.95;;
56997;SDS011;42890;44.244;22.530;2022-07-09T00:48:19;2.95;;;2.65;;
56997;SDS011;42890;44.244;22.530;2022-07-09T00:50:45;4.10;;;2.78;;
56997;SDS011;42890;44.244;22.530;2022-07-09T00:53:12;4.35;;;2.70;;
56997;SDS011;42890;44.244;22.530;2022-07-09T00:55:39;5.22;;;3.28;;
56997;SDS011;42890;44.244;22.530;2022-07-09T00:58:06;5.35;;;3.45;;
56997;SDS011;42890;44.244;22.530;2022-07-09T01:00:33;7.93;;;2.92;;
56997;SDS011;42890;44.244;22.530;2022-07-09T01:02:59;5.50;;;3.03;;
56997;SDS011;42890;44.244;22.530;2022-07-09T01:05:25;4.63;;;2.88;;
56997;SDS011;42890;44.244;22.530;2022-07-09T01:07:52;3.60;;;2.83;;
56997;SDS011;42890;44.244;22.530;2022-07-09T01:10:18;3.53;;;2.78;;
56997;SDS011;42890;44.244;22.530;2022-07-09T01:12:45;7.85;;;2.90;;
56997;SDS011;42890;44.244;22.530;2022-07-09T01:15:11;5.32;;;2.80;;
56997;SDS011;42890;44.244;22.530;2022-07-09T01:17:40;5.10;;;3.17;;
56997;SDS011;42890;44.244;22.530;2022-07-09T01:20:07;4.80;;;2.38;;
56997;SDS011;42890;44.244;22.530;2022-07-09T01:22:34;3.20;;;2.90;;
56997;SDS011;42890;44.244;22.530;2022-07-09T01:25:04;4.75;;;2.80;;
56997;SDS011;42890;44.244;22.530;2022-07-09T01:27:35;7.45;;;2.60;;
56997;SDS011;42890;44.244;22.530;2022-07-09T01:30:02;4.90;;;2.88;;
56997;SDS011;42890;44.244;22.530;2022-07-09T01:32:28;3.65;;;2.78;;
56997;SDS011;42890;44.244;22.530;2022-07-09T01:34:54;4.75;;;2.50;;
56997;SDS011;42890;44.244;22.530;2022-07-09T01:37:20;3.00;;;2.63;;
56997;SDS011;42890;44.244;22.530;2022-07-09T01:39:47;15.05;;;3.10;;
56997;SDS011;42890;44.244;22.530;2022-07-09T01:42:16;2.45;;;2.20;;
56997;SDS011;42890;44.244;22.530;2022-07-09T01:44:43;8.20;;;3.00;;
56997;SDS011;42890;44.244;22.530;2022-07-09T01:47:11;4.10;;;3.00;;
56997;SDS011;42890;44.244;22.530;2022-07-09T01:49:39;7.45;;;2.67;;
56997;SDS011;42890;44.244;22.530;2022-07-09T01:52:06;4.00;;;2.58;;
56997;SDS011;42890;44.244;22.530;2022-07-09T01:54:32;8.20;;;3.40;;
56997;SDS011;42890;44.244;22.530;2022-07-09T01:56:59;7.88;;;3.15;;
56997;SDS011;42890;44.244;22.530;2022-07-09T01:59:25;7.40;;;3.15;;
56997;SDS011;42890;44.244;22.530;2022-07-09T02:01:51;10.32;;;3.60;;
56997;SDS011;42890;44.244;22.530;2022-07-09T02:04:17;5.55;;;3.13;;
56997;SDS011;42890;44.244;22.530;2022-07-09T02:06:43;6.28;;;3.03;;
56997;SDS011;42890;44.244;22.530;2022-07-09T02:09:09;6.55;;;3.30;;
56997;SDS011;42890;44.244;22.530;2022-07-09T02:11:35;7.15;;;2.95;;
56997;SDS011;42890;44.244;22.530;2022-07-09T02:14:02;4.68;;;2.60;;
56997;SDS011;42890;44.244;22.530;2022-07-09T02:16:29;4.70;;;2.88;;
56997;SDS011;42890;44.244;22.530;2022-07-09T02:18:55;6.10;;;3.13;;
56997;SDS011;42890;44.244;22.530;2022-07-09T02:21:21;8.48;;;3.60;;
56997;SDS011;42890;44.244;22.530;2022-07-09T02:23:47;8.25;;;3.10;;
56997;SDS011;42890;44.244;22.530;2022-07-09T02:26:14;9.90;;;3.63;;
56997;SDS011;42890;44.244;22.530;2022-07-09T02:28:40;6.80;;;3.45;;
56997;SDS011;42890;44.244;22.530;2022-07-09T02:31:06;9.02;;;3.25;;
56997;SDS011;42890;44.244;22.530;2022-07-09T02:33:32;4.00;;;3.42;;
56997;SDS011;42890;44.244;22.530;2022-07-09T02:35:59;12.57;;;3.42;;
56997;SDS011;42890;44.244;22.530;2022-07-09T02:38:25;10.23;;;3.80;;
56997;SDS011;42890;44.244;22.530;2022-07-09T02:40:51;9.27;;;3.38;;
56997;SDS011;42890;44.244;22.530;2022-07-09T02:43:17;6.13;;;3.15;;
56997;SDS011;42890;44.244;22.530;2022-07-09T02:45:43;7.07;;;3.33;;
56997;SDS011;42890;44.244;22.530;2022-07-09T02:48:09;9.82;;;3.50;;
56997;SDS011;42890;44.244;22.530;2022-07-09T02:50:36;8.90;;;3.50;;
56997;SDS011;42890;44.244;22.530;2022-07-09T02:53:02;3.67;;;2.95;;
56997;SDS011;42890;44.244;22.530;2022-07-09T02:55:28;6.80;;;3.05;;
56997;SDS011;42890;44.244;22.530;2022-07-09T02:57:54;5.72;;;3.22;;
56997;SDS011;42890;44.244;22.530;2022-07-09T03:00:20;7.25;;;2.63;;
56997;SDS011;42890;44.244;22.530;2022-07-09T03:02:46;5.80;;;2.90;;
56997;SDS011;42890;44.244;22.530;2022-07-09T03:05:13;3.75;;;2.90;;
56997;SDS011;42890;44.244;22.530;2022-07-09T03:07:39;4.55;;;2.60;;
56997;SDS011;42890;44.244;22.530;2022-07-09T03:10:05;3.03;;;2.63;;
56997;SDS011;42890;44.244;22.530;2022-07-09T03:12:31;5.10;;;2.70;;
56997;SDS011;42890;44.244;22.530;2022-07-09T03:14:58;4.85;;;2.60;;
56997;SDS011;42890;44.244;22.530;2022-07-09T03:17:24;3.55;;;2.50;;
56997;SDS011;42890;44.244;22.530;2022-07-09T03:19:52;4.35;;;2.65;;
56997;SDS011;42890;44.244;22.530;2022-07-09T03:22:18;3.08;;;2.63;;
56997;SDS011;42890;44.244;22.530;2022-07-09T03:24:44;2.50;;;2.30;;
56997;SDS011;42890;44.244;22.530;2022-07-09T03:27:10;3.53;;;2.58;;
56997;SDS011;42890;44.244;22.530;2022-07-09T03:29:36;3.90;;;2.70;;
56997;SDS011;42890;44.244;22.530;2022-07-09T03:32:02;5.95;;;3.15;;
56997;SDS011;42890;44.244;22.530;2022-07-09T03:34:29;4.03;;;3.10;;
56997;SDS011;42890;44.244;22.530;2022-07-09T03:36:55;7.57;;;3.10;;
56997;SDS011;42890;44.244;22.530;2022-07-09T03:39:21;5.82;;;3.22;;
56997;SDS011;42890;44.244;22.530;2022-07-09T03:41:47;4.57;;;2.90;;
56997;SDS011;42890;44.244;22.530;2022-07-09T03:44:13;3.92;;;3.30;;
56997;SDS011;42890;44.244;22.530;2022-07-09T03:46:40;3.15;;;2.95;;
56997;SDS011;42890;44.244;22.530;2022-07-09T03:49:06;4.78;;;3.03;;
56997;SDS011;42890;44.244;22.530;2022-07-09T03:51:32;3.53;;;3.20;;
56997;SDS011;42890;44.244;22.530;2022-07-09T03:53:58;4.78;;;3.13;;
56997;SDS011;42890;44.244;22.530;2022-07-09T03:56:24;3.90;;;2.90;;
56997;SDS011;42890;44.244;22.530;2022-07-09T03:58:51;3.20;;;2.90;;
56997;SDS011;42890;44.244;22.530;2022-07-09T04:01:17;4.40;;;3.40;;
56997;SDS011;42890;44.244;22.530;2022-07-09T04:03:43;4.70;;;3.28;;
56997;SDS011;42890;44.244;22.530;2022-07-09T04:06:10;4.32;;;2.92;;
56997;SDS011;42890;44.244;22.530;2022-07-09T04:08:36;5.25;;;3.20;;
56997;SDS011;42890;44.244;22.530;2022-07-09T04:11:02;3.55;;;3.25;;
56997;SDS011;42890;44.244;22.530;2022-07-09T04:13:28;3.47;;;2.80;;
56997;SDS011;42890;44.244;22.530;2022-07-09T04:15:55;3.10;;;2.80;;
56997;SDS011;42890;44.244;22.530;2022-07-09T04:18:21;9.57;;;3.10;;
56997;SDS011;42890;44.244;22.530;2022-07-09T04:20:47;3.15;;;2.75;;
56997;SDS011;42890;44.244;22.530;2022-07-09T04:23:13;3.22;;;2.85;;
56997;SDS011;42890;44.244;22.530;2022-07-09T04:25:39;5.78;;;3.50;;
56997;SDS011;42890;44.244;22.530;2022-07-09T04:28:05;3.22;;;2.95;;
56997;SDS011;42890;44.244;22.530;2022-07-09T04:30:31;4.45;;;3.03;;
56997;SDS011;42890;44.244;22.530;2022-07-09T04:32:58;3.20;;;2.90;;
56997;SDS011;42890;44.244;22.530;2022-07-09T04:35:25;4.07;;;3.13;;
56997;SDS011;42890;44.244;22.530;2022-07-09T04:37:51;4.32;;;3.35;;
56997;SDS011;42890;44.244;22.530;2022-07-09T04:40:18;5.00;;;3.40;;
56997;SDS011;42890;44.244;22.530;2022-07-09T04:42:44;4.30;;;3.40;;
56997;SDS011;42890;44.244;22.530;2022-07-09T04:45:10;4.03;;;3.05;;
56997;SDS011;42890;44.244;22.530;2022-07-09T04:47:36;3.78;;;3.28;;
56997;SDS011;42890;44.244;22.530;2022-07-09T04:50:02;4.65;;;2.67;;
56997;SDS011;42890;44.244;22.530;2022-07-09T04:52:29;2.90;;;2.70;;
56997;SDS011;42890;44.244;22.530;2022-07-09T04:54:55;2.80;;;2.60;;
56997;SDS011;42890;44.244;22.530;2022-07-09T04:57:21;3.08;;;2.78;;
56997;SDS011;42890;44.244;22.530;2022-07-09T04:59:47;2.67;;;2.42;;
56997;SDS011;42890;44.244;22.530;2022-07-09T05:02:13;5.35;;;2.97;;
56997;SDS011;42890;44.244;22.530;2022-07-09T05:04:39;3.03;;;2.70;;
56997;SDS011;42890;44.244;22.530;2022-07-09T05:07:06;8.07;;;2.88;;
56997;SDS011;42890;44.244;22.530;2022-07-09T05:09:32;7.35;;;3.42;;
56997;SDS011;42890;44.244;22.530;2022-07-09T05:11:58;2.72;;;2.53;;
56997;SDS011;42890;44.244;22.530;2022-07-09T05:14:25;3.65;;;3.00;;
56997;SDS011;42890;44.244;22.530;2022-07-09T05:16:51;4.25;;;2.78;;
56997;SDS011;42890;44.244;22.530;2022-07-09T05:19:17;6.60;;;2.75;;
56997;SDS011;42890;44.244;22.530;2022-07-09T05:21:43;3.72;;;2.67;;
56997;SDS011;42890;44.244;22.530;2022-07-09T05:24:09;5.00;;;2.40;;
56997;SDS011;42890;44.244;22.530;2022-07-09T05:26:35;3.20;;;2.92;;
56997;SDS011;42890;44.244;22.530;2022-07-09T05:29:04;3.20;;;2.90;;
56997;SDS011;42890;44.244;22.530;2022-07-09T05:31:30;3.38;;;3.17;;
56997;SDS011;42890;44.244;22.530;2022-07-09T05:33:57;3.95;;;3.55;;
56997;SDS011;42890;44.244;22.530;2022-07-09T05:36:25;5.85;;;3.33;;
56997;SDS011;42890;44.244;22.530;2022-07-09T05:38:53;4.75;;;3.50;;
56997;SDS011;42890;44.244;22.530;2022-07-09T05:41:20;5.32;;;3.40;;
56997;SDS011;42890;44.244;22.530;2022-07-09T05:43:47;4.32;;;3.85;;
56997;SDS011;42890;44.244;22.530;2022-07-09T05:46:13;5.32;;;3.80;;
56997;SDS011;42890;44.244;22.530;2022-07-09T05:48:39;6.20;;;4.20;;
56997;SDS011;42890;44.244;22.530;2022-07-09T05:51:06;4.75;;;3.92;;
56997;SDS011;42890;44.244;22.530;2022-07-09T05:53:32;7.97;;;4.50;;
56997;SDS011;42890;44.244;22.530;2022-07-09T05:55:58;5.63;;;4.10;;
56997;SDS011;42890;44.244;22.530;2022-07-09T05:58:24;6.53;;;4.35;;
56997;SDS011;42890;44.244;22.530;2022-07-09T06:00:51;5.75;;;4.78;;
56997;SDS011;42890;44.244;22.530;2022-07-09T06:03:17;5.32;;;4.55;;
56997;SDS011;42890;44.244;22.530;2022-07-09T06:05:43;7.03;;;4.88;;
56997;SDS011;42890;44.244;22.530;2022-07-09T06:08:09;5.63;;;4.68;;
56997;SDS011;42890;44.244;22.530;2022-07-09T06:10:35;19.08;;;5.03;;
56997;SDS011;42890;44.244;22.530;2022-07-09T06:13:01;7.18;;;4.53;;
56997;SDS011;42890;44.244;22.530;2022-07-09T06:15:28;5.22;;;4.72;;
56997;SDS011;42890;44.244;22.530;2022-07-09T06:17:54;5.55;;;5.05;;
56997;SDS011;42890;44.244;22.530;2022-07-09T06:20:20;8.20;;;5.28;;
56997;SDS011;42890;44.244;22.530;2022-07-09T06:22:46;7.43;;;5.00;;
56997;SDS011;42890;44.244;22.530;2022-07-09T06:25:12;4.95;;;4.45;;
56997;SDS011;42890;44.244;22.530;2022-07-09T06:27:38;5.55;;;4.75;;
56997;SDS011;42890;44.244;22.530;2022-07-09T06:30:08;7.10;;;4.80;;
56997;SDS011;42890;44.244;22.530;2022-07-09T06:32:34;7.85;;;5.68;;
56997;SDS011;42890;44.244;22.530;2022-07-09T06:35:00;8.65;;;5.00;;
56997;SDS011;42890;44.244;22.530;2022-07-09T06:37:28;6.70;;;5.25;;
56997;SDS011;42890;44.244;22.530;2022-07-09T06:39:54;7.07;;;4.93;;
56997;SDS011;42890;44.244;22.530;2022-07-09T06:42:21;7.38;;;5.40;;
56997;SDS011;42890;44.244;22.530;2022-07-09T06:44:48;5.50;;;4.95;;
56997;SDS011;42890;44.244;22.530;2022-07-09T06:47:14;7.53;;;5.40;;
56997;SDS011;42890;44.244;22.530;2022-07-09T06:49:40;7.22;;;5.03;;
56997;SDS011;42890;44.244;22.530;2022-07-09T06:52:06;8.25;;;5.05;;
56997;SDS011;42890;44.244;22.530;2022-07-09T06:54:33;5.55;;;4.93;;
56997;SDS011;42890;44.244;22.530;2022-07-09T06:56:59;6.40;;;5.80;;
56997;SDS011;42890;44.244;22.530;2022-07-09T06:59:26;6.60;;;5.93;;
56997;SDS011;42890;44.244;22.530;2022-07-09T07:01:52;8.05;;;5.68;;
56997;SDS011;42890;44.244;22.530;2022-07-09T07:04:18;6.50;;;5.30;;
56997;SDS011;42890;44.244;22.530;2022-07-09T07:06:45;5.90;;;5.30;;
56997;SDS011;42890;44.244;22.530;2022-07-09T07:09:14;6.22;;;5.63;;
56997;SDS011;42890;44.244;22.530;2022-07-09T07:11:46;7.57;;;6.00;;
56997;SDS011;42890;44.244;22.530;2022-07-09T07:14:12;5.80;;;5.30;;
56997;SDS011;42890;44.244;22.530;2022-07-09T07:16:38;6.65;;;5.20;;
56997;SDS011;42890;44.244;22.530;2022-07-09T07:19:04;8.25;;;5.60;;
56997;SDS011;42890;44.244;22.530;2022-07-09T07:21:31;7.15;;;5.15;;
56997;SDS011;42890;44.244;22.530;2022-07-09T07:23:57;5.28;;;4.88;;
56997;SDS011;42890;44.244;22.530;2022-07-09T07:26:23;6.22;;;5.50;;
56997;SDS011;42890;44.244;22.530;2022-07-09T07:28:49;6.82;;;5.40;;
56997;SDS011;42890;44.244;22.530;2022-07-09T07:31:15;5.85;;;5.25;;
56997;SDS011;42890;44.244;22.530;2022-07-09T07:33:41;8.30;;;5.28;;
56997;SDS011;42890;44.244;22.530;2022-07-09T07:36:08;6.47;;;5.65;;
56997;SDS011;42890;44.244;22.530;2022-07-09T07:38:34;7.47;;;5.20;;
56997;SDS011;42890;44.244;22.530;2022-07-09T07:41:01;7.00;;;5.95;;
56997;SDS011;42890;44.244;22.530;2022-07-09T07:43:27;6.95;;;6.07;;
56997;SDS011;42890;44.244;22.530;2022-07-09T07:45:53;6.82;;;6.22;;
56997;SDS011;42890;44.244;22.530;2022-07-09T07:48:19;9.00;;;6.63;;
56997;SDS011;42890;44.244;22.530;2022-07-09T07:50:45;8.27;;;6.38;;
56997;SDS011;42890;44.244;22.530;2022-07-09T07:53:11;9.57;;;6.68;;
56997;SDS011;42890;44.244;22.530;2022-07-09T07:55:37;7.13;;;6.53;;
56997;SDS011;42890;44.244;22.530;2022-07-09T07:58:04;8.05;;;6.55;;
56997;SDS011;42890;44.244;22.530;2022-07-09T08:00:30;7.82;;;6.80;;
56997;SDS011;42890;44.244;22.530;2022-07-09T08:02:56;8.65;;;6.85;;
56997;SDS011;42890;44.244;22.530;2022-07-09T08:05:23;13.43;;;7.13;;
56997;SDS011;42890;44.244;22.530;2022-07-09T08:07:50;7.63;;;6.93;;
56997;SDS011;42890;44.244;22.530;2022-07-09T08:10:16;9.38;;;7.70;;
56997;SDS011;42890;44.244;22.530;2022-07-09T08:12:42;7.57;;;6.70;;
56997;SDS011;42890;44.244;22.530;2022-07-09T08:15:08;9.45;;;6.90;;
56997;SDS011;42890;44.244;22.530;2022-07-09T08:17:35;9.23;;;7.35;;
56997;SDS011;42890;44.244;22.530;2022-07-09T08:20:01;7.88;;;7.10;;
56997;SDS011;42890;44.244;22.530;2022-07-09T08:22:27;9.40;;;7.30;;
56997;SDS011;42890;44.244;22.530;2022-07-09T08:24:53;8.10;;;7.50;;
56997;SDS011;42890;44.244;22.530;2022-07-09T08:27:19;8.90;;;7.38;;
56997;SDS011;42890;44.244;22.530;2022-07-09T08:29:45;12.75;;;7.80;;
56997;SDS011;42890;44.244;22.530;2022-07-09T08:32:14;7.55;;;6.57;;
56997;SDS011;42890;44.244;22.530;2022-07-09T08:34:40;8.05;;;7.30;;
56997;SDS011;42890;44.244;22.530;2022-07-09T08:37:06;8.68;;;7.10;;
56997;SDS011;42890;44.244;22.530;2022-07-09T08:39:32;9.43;;;7.07;;
56997;SDS011;42890;44.244;22.530;2022-07-09T08:41:58;8.43;;;7.53;;
56997;SDS011;42890;44.244;22.530;2022-07-09T08:44:26;9.18;;;7.47;;
56997;SDS011;42890;44.244;22.530;2022-07-09T08:46:59;8.48;;;7.45;;
56997;SDS011;42890;44.244;22.530;2022-07-09T08:49:26;9.52;;;7.80;;
56997;SDS011;42890;44.244;22.530;2022-07-09T08:51:52;9.32;;;7.30;;
56997;SDS011;42890;44.244;22.530;2022-07-09T08:54:20;10.55;;;7.40;;
56997;SDS011;42890;44.244;22.530;2022-07-09T08:56:46;7.90;;;6.90;;
56997;SDS011;42890;44.244;22.530;2022-07-09T08:59:12;9.13;;;7.45;;
56997;SDS011;42890;44.244;22.530;2022-07-09T09:01:38;7.35;;;6.63;;
56997;SDS011;42890;44.244;22.530;2022-07-09T09:04:04;7.93;;;6.70;;
56997;SDS011;42890;44.244;22.530;2022-07-09T09:06:36;8.63;;;7.28;;
56997;SDS011;42890;44.244;22.530;2022-07-09T09:09:02;6.93;;;6.22;;
56997;SDS011;42890;44.244;22.530;2022-07-09T09:11:29;8.57;;;6.60;;
56997;SDS011;42890;44.244;22.530;2022-07-09T09:13:56;8.95;;;6.75;;
56997;SDS011;42890;44.244;22.530;2022-07-09T09:16:23;8.45;;;6.47;;
56997;SDS011;42890;44.244;22.530;2022-07-09T09:18:50;7.22;;;6.60;;
56997;SDS011;42890;44.244;22.530;2022-07-09T09:21:18;10.43;;;6.82;;
56997;SDS011;42890;44.244;22.530;2022-07-09T09:23:49;9.65;;;6.22;;
56997;SDS011;42890;44.244;22.530;2022-07-09T09:26:19;8.45;;;6.50;;
56997;SDS011;42890;44.244;22.530;2022-07-09T09:31:19;8.00;;;6.25;;
56997;SDS011;42890;44.244;22.530;2022-07-09T09:33:45;7.45;;;6.15;;
56997;SDS011;42890;44.244;22.530;2022-07-09T09:36:22;11.05;;;6.40;;
56997;SDS011;42890;44.244;22.530;2022-07-09T09:38:48;7.15;;;6.50;;
56997;SDS011;42890;44.244;22.530;2022-07-09T09:41:21;9.93;;;6.38;;
56997;SDS011;42890;44.244;22.530;2022-07-09T09:43:47;7.40;;;6.57;;
56997;SDS011;42890;44.244;22.530;2022-07-09T09:46:14;7.78;;;6.70;;
56997;SDS011;42890;44.244;22.530;2022-07-09T09:48:40;11.50;;;6.28;;
56997;SDS011;42890;44.244;22.530;2022-07-09T09:51:07;6.82;;;6.15;;
56997;SDS011;42890;44.244;22.530;2022-07-09T09:53:34;9.55;;;6.63;;
56997;SDS011;42890;44.244;22.530;2022-07-09T09:56:01;8.63;;;6.75;;
56997;SDS011;42890;44.244;22.530;2022-07-09T09:58:27;7.68;;;6.28;;
56997;SDS011;42890;44.244;22.530;2022-07-09T10:00:54;7.60;;;5.75;;
56997;SDS011;42890;44.244;22.530;2022-07-09T10:03:21;7.95;;;6.22;;
56997;SDS011;42890;44.244;22.530;2022-07-09T10:05:47;8.73;;;6.57;;
56997;SDS011;42890;44.244;22.530;2022-07-09T10:08:15;8.25;;;7.20;;
56997;SDS011;42890;44.244;22.530;2022-07-09T10:10:51;8.82;;;7.97;;
56997;SDS011;42890;44.244;22.530;2022-07-09T10:13:20;12.88;;;7.72;;
56997;SDS011;42890;44.244;22.530;2022-07-09T10:15:50;11.27;;;7.40;;
56997;SDS011;42890;44.244;22.530;2022-07-09T10:18:17;12.10;;;9.40;;
56997;SDS011;42890;44.244;22.530;2022-07-09T10:20:43;11.75;;;8.70;;
56997;SDS011;42890;44.244;22.530;2022-07-09T10:23:22;9.45;;;8.52;;
56997;SDS011;42890;44.244;22.530;2022-07-09T10:25:49;10.15;;;8.85;;
56997;SDS011;42890;44.244;22.530;2022-07-09T10:28:21;10.00;;;9.10;;
56997;SDS011;42890;44.244;22.530;2022-07-09T10:30:50;12.68;;;10.48;;
56997;SDS011;42890;44.244;22.530;2022-07-09T10:33:23;11.10;;;10.00;;
56997;SDS011;42890;44.244;22.530;2022-07-09T10:35:50;12.38;;;10.85;;
56997;SDS011;42890;44.244;22.530;2022-07-09T10:38:17;11.93;;;10.88;;
56997;SDS011;42890;44.244;22.530;2022-07-09T10:40:55;12.98;;;11.68;;
56997;SDS011;42890;44.244;22.530;2022-07-09T10:43:36;12.90;;;11.68;;
56997;SDS011;42890;44.244;22.530;2022-07-09T10:46:08;13.95;;;12.68;;
56997;SDS011;42890;44.244;22.530;2022-07-09T10:48:35;13.93;;;12.80;;
56997;SDS011;42890;44.244;22.530;2022-07-09T10:51:02;14.77;;;13.60;;
56997;SDS011;42890;44.244;22.530;2022-07-09T10:53:28;15.48;;;13.95;;
56997;SDS011;42890;44.244;22.530;2022-07-09T10:55:54;15.93;;;14.52;;
56997;SDS011;42890;44.244;22.530;2022-07-09T10:58:22;15.32;;;14.02;;
56997;SDS011;42890;44.244;22.530;2022-07-09T11:00:55;14.95;;;13.80;;
56997;SDS011;42890;44.244;22.530;2022-07-09T11:03:28;17.02;;;14.57;;
56997;SDS011;42890;44.244;22.530;2022-07-09T11:05:55;16.73;;;15.00;;
56997;SDS011;42890;44.244;22.530;2022-07-09T11:08:21;17.60;;;14.25;;
56997;SDS011;42890;44.244;22.530;2022-07-09T11:10:48;15.35;;;13.85;;
56997;SDS011;42890;44.244;22.530;2022-07-09T11:13:14;16.48;;;15.23;;
56997;SDS011;42890;44.244;22.530;2022-07-09T11:15:40;16.08;;;14.77;;
56997;SDS011;42890;44.244;22.530;2022-07-09T11:23:09;14.98;;;13.77;;
56997;SDS011;42890;44.244;22.530;2022-07-09T11:25:36;15.88;;;14.20;;
56997;SDS011;42890;44.244;22.530;2022-07-09T11:28:02;14.88;;;13.38;;
56997;SDS011;42890;44.244;22.530;2022-07-09T11:30:29;14.52;;;13.18;;
56997;SDS011;42890;44.244;22.530;2022-07-09T11:32:55;14.90;;;13.70;;
56997;SDS011;42890;44.244;22.530;2022-07-09T11:35:28;16.10;;;14.75;;
56997;SDS011;42890;44.244;22.530;2022-07-09T11:38:01;15.60;;;14.07;;
56997;SDS011;42890;44.244;22.530;2022-07-09T11:40:28;15.75;;;14.55;;
56997;SDS011;42890;44.244;22.530;2022-07-09T11:42:55;15.65;;;14.32;;
56997;SDS011;42890;44.244;22.530;2022-07-09T11:45:22;15.23;;;14.00;;
56997;SDS011;42890;44.244;22.530;2022-07-09T11:47:49;15.88;;;14.48;;
56997;SDS011;42890;44.244;22.530;2022-07-09T11:50:16;16.10;;;14.73;;
56997;SDS011;42890;44.244;22.530;2022-07-09T11:52:49;16.83;;;15.32;;
56997;SDS011;42890;44.244;22.530;2022-07-09T11:55:16;16.48;;;14.98;;
56997;SDS011;42890;44.244;22.530;2022-07-09T11:57:53;18.15;;;16.52;;
56997;SDS011;42890;44.244;22.530;2022-07-09T12:00:23;16.55;;;15.02;;
56997;SDS011;42890;44.244;22.530;2022-07-09T12:02:50;16.73;;;15.20;;
56997;SDS011;42890;44.244;22.530;2022-07-09T12:05:27;15.25;;;13.93;;
56997;SDS011;42890;44.244;22.530;2022-07-09T12:07:55;15.85;;;14.27;;
56997;SDS011;42890;44.244;22.530;2022-07-09T12:10:25;15.50;;;14.10;;
56997;SDS011;42890;44.244;22.530;2022-07-09T12:12:51;16.23;;;14.63;;
56997;SDS011;42890;44.244;22.530;2022-07-09T12:15:17;12.68;;;11.70;;
56997;SDS011;42890;44.244;22.530;2022-07-09T12:17:43;14.57;;;13.38;;
56997;SDS011;42890;44.244;22.530;2022-07-09T12:20:10;15.27;;;13.73;;
56997;SDS011;42890;44.244;22.530;2022-07-09T12:22:36;13.75;;;12.45;;
56997;SDS011;42890;44.244;22.530;2022-07-09T12:25:02;14.05;;;12.98;;
56997;SDS011;42890;44.244;22.530;2022-07-09T12:27:28;15.57;;;13.68;;
56997;SDS011;42890;44.244;22.530;2022-07-09T12:29:54;14.10;;;13.00;;
56997;SDS011;42890;44.244;22.530;2022-07-09T12:32:20;15.15;;;13.48;;
56997;SDS011;42890;44.244;22.530;2022-07-09T12:34:47;14.15;;;11.88;;
56997;SDS011;42890;44.244;22.530;2022-07-09T12:37:13;13.15;;;12.05;;
56997;SDS011;42890;44.244;22.530;2022-07-09T12:39:39;13.20;;;12.07;;
56997;SDS011;42890;44.244;22.530;2022-07-09T12:42:05;13.63;;;12.27;;
56997;SDS011;42890;44.244;22.530;2022-07-09T12:44:31;12.60;;;11.55;;
56997;SDS011;42890;44.244;22.530;2022-07-09T12:46:57;12.48;;;11.27;;
56997;SDS011;42890;44.244;22.530;2022-07-09T12:49:23;13.13;;;12.02;;
56997;SDS011;42890;44.244;22.530;2022-07-09T12:51:50;12.80;;;11.77;;
56997;SDS011;42890;44.244;22.530;2022-07-09T12:54:16;12.30;;;11.07;;
56997;SDS011;42890;44.244;22.530;2022-07-09T12:56:42;11.85;;;10.75;;
56997;SDS011;42890;44.244;22.530;2022-07-09T12:59:08;11.18;;;10.13;;
56997;SDS011;42890;44.244;22.530;2022-07-09T13:01:34;11.70;;;9.60;;
56997;SDS011;42890;44.244;22.530;2022-07-09T13:04:00;12.98;;;9.90;;
56997;SDS011;42890;44.244;22.530;2022-07-09T13:06:26;13.73;;;9.90;;
56997;SDS011;42890;44.244;22.530;2022-07-09T13:11:25;9.90;;;7.90;;
56997;SDS011;42890;44.244;22.530;2022-07-09T13:13:51;8.65;;;7.88;;
56997;SDS011;42890;44.244;22.530;2022-07-09T13:16:17;7.35;;;6.68;;
56997;SDS011;42890;44.244;22.530;2022-07-09T13:18:43;9.27;;;7.22;;
56997;SDS011;42890;44.244;22.530;2022-07-09T13:21:09;7.63;;;6.93;;
56997;SDS011;42890;44.244;22.530;2022-07-09T13:23:36;7.95;;;6.20;;
56997;SDS011;42890;44.244;22.530;2022-07-09T13:26:02;7.43;;;6.13;;
56997;SDS011;42890;44.244;22.530;2022-07-09T13:28:28;11.32;;;6.30;;
56997;SDS011;42890;44.244;22.530;2022-07-09T13:30:54;6.95;;;5.90;;
56997;SDS011;42890;44.244;22.530;2022-07-09T13:33:21;9.70;;;5.47;;
56997;SDS011;42890;44.244;22.530;2022-07-09T13:35:47;8.65;;;5.38;;
56997;SDS011;42890;44.244;22.530;2022-07-09T13:38:13;6.47;;;5.55;;
56997;SDS011;42890;44.244;22.530;2022-07-09T13:40:39;6.03;;;4.68;;
56997;SDS011;42890;44.244;22.530;2022-07-09T13:43:05;7.43;;;5.35;;
56997;SDS011;42890;44.244;22.530;2022-07-09T13:45:31;7.85;;;4.82;;
56997;SDS011;42890;44.244;22.530;2022-07-09T13:47:57;10.88;;;5.28;;
56997;SDS011;42890;44.244;22.530;2022-07-09T13:50:24;4.95;;;4.55;;
56997;SDS011;42890;44.244;22.530;2022-07-09T13:52:50;5.13;;;3.70;;
56997;SDS011;42890;44.244;22.530;2022-07-09T13:55:16;8.18;;;3.90;;
56997;SDS011;42890;44.244;22.530;2022-07-09T13:57:42;6.88;;;4.15;;
56997;SDS011;42890;44.244;22.530;2022-07-09T14:00:08;9.57;;;4.38;;
56997;SDS011;42890;44.244;22.530;2022-07-09T14:02:35;6.43;;;4.05;;
56997;SDS011;42890;44.244;22.530;2022-07-09T14:05:02;8.48;;;4.45;;
56997;SDS011;42890;44.244;22.530;2022-07-09T14:07:29;7.03;;;4.38;;
56997;SDS011;42890;44.244;22.530;2022-07-09T14:09:55;9.73;;;4.40;;
56997;SDS011;42890;44.244;22.530;2022-07-09T14:12:21;4.35;;;3.95;;
56997;SDS011;42890;44.244;22.530;2022-07-09T14:14:49;9.10;;;4.30;;
56997;SDS011;42890;44.244;22.530;2022-07-09T14:17:15;5.72;;;4.30;;
56997;SDS011;42890;44.244;22.530;2022-07-09T14:19:42;4.78;;;3.75;;
56997;SDS011;42890;44.244;22.530;2022-07-09T14:22:08;5.25;;;4.25;;
56997;SDS011;42890;44.244;22.530;2022-07-09T14:24:34;6.53;;;4.30;;
56997;SDS011;42890;44.244;22.530;2022-07-09T14:27:00;4.15;;;3.75;;
56997;SDS011;42890;44.244;22.530;2022-07-09T14:29:27;6.75;;;3.70;;
56997;SDS011;42890;44.244;22.530;2022-07-09T14:31:53;4.10;;;3.42;;
56997;SDS011;42890;44.244;22.530;2022-07-09T14:34:19;7.53;;;3.65;;
56997;SDS011;42890;44.244;22.530;2022-07-09T14:36:45;7.47;;;3.55;;